sensor_id;sensor_type;location;lat;lon;timestamp;pressure;altitude;pressure_sealevel;temperature;humidity
4410;BME280;2218;51.408;7.208;2023-02-28T00:01:18;101078.09;;;17.71;28.61
4410;BME280;2218;51.408;7.208;2023-02-28T00:03:45;101086.88;;;17.70;28.58
4410;BME280;2218;51.408;7.208;2023-02-28T00:06:12;101086.97;;;17.68;28.86
4410;BME280;2218;51.408;7.208;2023-02-28T00:08:39;101089.59;;;17.68;28.34
4410;BME280;2218;51.408;7.208;2023-02-28T00:11:09;101087.88;;;17.67;28.76
4410;BME280;2218;51.408;7.208;2023-02-28T00:13:39;101091.44;;;17.66;28.83
4410;BME280;2218;51.408;7.208;2023-02-28T00:16:11;101088.84;;;17.65;28.67
4410;BME280;2218;51.408;7.208;2023-02-28T00:18:39;101090.63;;;17.64;28.91
4410;BME280;2218;51.408;7.208;2023-02-28T00:21:07;101086.28;;;17.63;28.68
4410;BME280;2218;51.408;7.208;2023-02-28T00:23:34;101089.84;;;17.62;28.83
4410;BME280;2218;51.408;7.208;2023-02-28T00:26:03;101081.03;;;17.63;28.58
4410;BME280;2218;51.408;7.208;2023-02-28T00:28:30;101087.28;;;17.61;28.70
4410;BME280;2218;51.408;7.208;2023-02-28T00:30:58;101090.81;;;17.60;28.83
4410;BME280;2218;51.408;7.208;2023-02-28T00:33:27;101084.69;;;17.59;28.80
4410;BME280;2218;51.408;7.208;2023-02-28T00:36:05;101090.88;;;17.58;28.78
4410;BME280;2218;51.408;7.208;2023-02-28T00:38:35;101079.59;;;17.56;28.81
4410;BME280;2218;51.408;7.208;2023-02-28T00:41:02;101086.53;;;17.57;28.88
4410;BME280;2218;51.408;7.208;2023-02-28T00:43:32;101087.47;;;17.56;28.86
4410;BME280;2218;51.408;7.208;2023-02-28T00:45:58;101082.25;;;17.54;28.99
4410;BME280;2218;51.408;7.208;2023-02-28T00:48:27;101087.56;;;17.53;28.81
4410;BME280;2218;51.408;7.208;2023-02-28T00:50:54;101083.25;;;17.52;28.88
4410;BME280;2218;51.408;7.208;2023-02-28T00:53:21;101085.88;;;17.52;28.97
4410;BME280;2218;51.408;7.208;2023-02-28T00:55:49;101086.81;;;17.51;28.89
4410;BME280;2218;51.408;7.208;2023-02-28T00:58:16;101092.91;;;17.51;28.97
4410;BME280;2218;51.408;7.208;2023-02-28T01:00:43;101098.19;;;17.50;28.91
4410;BME280;2218;51.408;7.208;2023-02-28T01:03:15;101098.19;;;17.50;28.89
4410;BME280;2218;51.408;7.208;2023-02-28T01:05:44;101101.75;;;17.49;28.93
4410;BME280;2218;51.408;7.208;2023-02-28T01:08:12;101096.56;;;17.47;28.83
4410;BME280;2218;51.408;7.208;2023-02-28T01:10:39;101093.09;;;17.47;28.97
4410;BME280;2218;51.408;7.208;2023-02-28T01:13:07;101095.72;;;17.47;28.99
4410;BME280;2218;51.408;7.208;2023-02-28T01:15:45;101097.53;;;17.45;29.19
4410;BME280;2218;51.408;7.208;2023-02-28T01:18:12;101094.97;;;17.43;28.91
4410;BME280;2218;51.408;7.208;2023-02-28T01:20:39;101094.13;;;17.43;29.04
4410;BME280;2218;51.408;7.208;2023-02-28T01:23:08;101094.13;;;17.43;28.94
4410;BME280;2218;51.408;7.208;2023-02-28T01:25:35;101093.34;;;17.41;28.84
4410;BME280;2218;51.408;7.208;2023-02-28T01:28:05;101088.97;;;17.40;29.03
4410;BME280;2218;51.408;7.208;2023-02-28T01:30:32;101093.38;;;17.39;29.01
4410;BME280;2218;51.408;7.208;2023-02-28T01:33:00;101088.19;;;17.38;29.14
4410;BME280;2218;51.408;7.208;2023-02-28T01:35:27;101087.34;;;17.37;28.98
4410;BME280;2218;51.408;7.208;2023-02-28T01:37:54;101083.84;;;17.37;28.76
4410;BME280;2218;51.408;7.208;2023-02-28T01:40:22;101085.66;;;17.35;29.17
4410;BME280;2218;51.408;7.208;2023-02-28T01:42:49;101078.72;;;17.34;28.94
4410;BME280;2218;51.408;7.208;2023-02-28T01:45:24;101082.25;;;17.33;29.25
4410;BME280;2218;51.408;7.208;2023-02-28T01:47:58;101070.03;;;17.31;29.13
4410;BME280;2218;51.408;7.208;2023-02-28T01:50:31;101071.69;;;17.34;29.14
4410;BME280;2218;51.408;7.208;2023-02-28T01:53:07;101062.84;;;17.37;29.25
4410;BME280;2218;51.408;7.208;2023-02-28T01:55:41;101067.09;;;17.39;29.27
4410;BME280;2218;51.408;7.208;2023-02-28T01:58:09;101059.88;;;17.44;28.93
4410;BME280;2218;51.408;7.208;2023-02-28T02:00:37;101060.69;;;17.46;28.72
4410;BME280;2218;51.408;7.208;2023-02-28T02:03:12;101069.28;;;17.50;28.41
4410;BME280;2218;51.408;7.208;2023-02-28T02:05:42;101066.56;;;17.53;28.62
4410;BME280;2218;51.408;7.208;2023-02-28T02:08:17;101062.06;;;17.55;28.69
4410;BME280;2218;51.408;7.208;2023-02-28T02:10:50;101071.56;;;17.59;28.79
4410;BME280;2218;51.408;7.208;2023-02-28T02:13:45;101070.63;;;17.60;28.91
4410;BME280;2218;51.408;7.208;2023-02-28T02:16:32;101062.69;;;17.62;28.60
4410;BME280;2218;51.408;7.208;2023-02-28T02:19:28;101059.16;;;17.63;28.88
4410;BME280;2218;51.408;7.208;2023-02-28T02:22:27;101058.28;;;17.62;28.77
4410;BME280;2218;51.408;7.208;2023-02-28T02:25:19;101055.53;;;17.65;28.75
4410;BME280;2218;51.408;7.208;2023-02-28T02:28:29;101052.03;;;17.65;28.54
4410;BME280;2218;51.408;7.208;2023-02-28T02:31:47;101053.78;;;17.66;28.77
4410;BME280;2218;51.408;7.208;2023-02-28T02:34:52;101047.50;;;17.68;28.45
4410;BME280;2218;51.408;7.208;2023-02-28T02:37:30;101051.00;;;17.69;28.52
4410;BME280;2218;51.408;7.208;2023-02-28T02:40:13;101049.22;;;17.69;28.65
4410;BME280;2218;51.408;7.208;2023-02-28T02:42:49;101049.22;;;17.69;28.33
4410;BME280;2218;51.408;7.208;2023-02-28T02:45:25;101049.22;;;17.69;28.54
4410;BME280;2218;51.408;7.208;2023-02-28T02:47:56;101055.34;;;17.70;28.40
4410;BME280;2218;51.408;7.208;2023-02-28T02:50:31;101049.19;;;17.71;28.55
4410;BME280;2218;51.408;7.208;2023-02-28T02:53:02;101054.38;;;17.72;28.53
4410;BME280;2218;51.408;7.208;2023-02-28T02:55:36;101054.38;;;17.72;28.21
4410;BME280;2218;51.408;7.208;2023-02-28T02:58:10;101064.00;;;17.73;28.33
4410;BME280;2218;51.408;7.208;2023-02-28T03:00:44;101058.72;;;17.73;28.40
4410;BME280;2218;51.408;7.208;2023-02-28T03:03:16;101055.19;;;17.74;28.42
4410;BME280;2218;51.408;7.208;2023-02-28T03:05:49;101056.94;;;17.74;28.64
4410;BME280;2218;51.408;7.208;2023-02-28T03:08:17;101057.75;;;17.76;28.39
4410;BME280;2218;51.408;7.208;2023-02-28T03:10:49;101057.69;;;17.77;28.42
4410;BME280;2218;51.408;7.208;2023-02-28T03:13:44;101061.16;;;17.78;28.38
4410;BME280;2218;51.408;7.208;2023-02-28T03:16:32;101060.25;;;17.79;28.44
4410;BME280;2218;51.408;7.208;2023-02-28T03:19:16;101052.44;;;17.77;28.29
4410;BME280;2218;51.408;7.208;2023-02-28T03:22:06;101054.13;;;17.78;28.59
4410;BME280;2218;51.408;7.208;2023-02-28T03:24:45;101052.34;;;17.79;28.44
4410;BME280;2218;51.408;7.208;2023-02-28T03:27:23;101055.84;;;17.79;28.03
4410;BME280;2218;51.408;7.208;2023-02-28T03:29:59;101049.69;;;17.80;28.08
4410;BME280;2218;51.408;7.208;2023-02-28T03:32:33;101041.78;;;17.80;28.08
4410;BME280;2218;51.408;7.208;2023-02-28T03:35:10;101046.13;;;17.81;28.17
4410;BME280;2218;51.408;7.208;2023-02-28T03:37:44;101046.13;;;17.81;28.13
4410;BME280;2218;51.408;7.208;2023-02-28T03:40:17;101048.75;;;17.81;28.19
4410;BME280;2218;51.408;7.208;2023-02-28T03:42:50;101046.91;;;17.83;28.31
4410;BME280;2218;51.408;7.208;2023-02-28T03:45:24;101051.31;;;17.83;28.00
4410;BME280;2218;51.408;7.208;2023-02-28T03:48:00;101058.25;;;17.86;28.55
4410;BME280;2218;51.408;7.208;2023-02-28T03:50:35;101060.06;;;17.83;28.40
4410;BME280;2218;51.408;7.208;2023-02-28T03:53:10;101056.50;;;17.85;28.15
4410;BME280;2218;51.408;7.208;2023-02-28T03:55:43;101059.13;;;17.85;28.12
4410;BME280;2218;51.408;7.208;2023-02-28T03:58:20;101060.91;;;17.84;28.25
4410;BME280;2218;51.408;7.208;2023-02-28T04:00:57;101053.75;;;17.88;27.90
4410;BME280;2218;51.408;7.208;2023-02-28T04:03:26;101053.75;;;17.88;28.15
4410;BME280;2218;51.408;7.208;2023-02-28T04:05:55;101059.00;;;17.88;28.07
4410;BME280;2218;51.408;7.208;2023-02-28T04:08:24;101055.59;;;17.86;28.11
4410;BME280;2218;51.408;7.208;2023-02-28T04:10:58;101052.91;;;17.87;28.04
4410;BME280;2218;51.408;7.208;2023-02-28T04:13:27;101055.53;;;17.87;28.28
4410;BME280;2218;51.408;7.208;2023-02-28T04:15:54;101057.31;;;17.87;28.03
4410;BME280;2218;51.408;7.208;2023-02-28T04:18:21;101064.28;;;17.88;27.96
4410;BME280;2218;51.408;7.208;2023-02-28T04:20:47;101056.31;;;17.89;28.03
4410;BME280;2218;51.408;7.208;2023-02-28T04:23:14;101058.16;;;17.87;28.14
4410;BME280;2218;51.408;7.208;2023-02-28T04:25:43;101059.88;;;17.88;27.98
4410;BME280;2218;51.408;7.208;2023-02-28T04:28:10;101061.66;;;17.88;28.27
4410;BME280;2218;51.408;7.208;2023-02-28T04:30:37;101063.34;;;17.89;27.85
4410;BME280;2218;51.408;7.208;2023-02-28T04:33:05;101067.84;;;17.87;28.03
4410;BME280;2218;51.408;7.208;2023-02-28T04:35:32;101062.56;;;17.87;27.75
4410;BME280;2218;51.408;7.208;2023-02-28T04:37:59;101070.50;;;17.85;28.09
4410;BME280;2218;51.408;7.208;2023-02-28T04:40:26;101073.09;;;17.87;28.05
4410;BME280;2218;51.408;7.208;2023-02-28T04:42:54;101062.56;;;17.87;28.12
4410;BME280;2218;51.408;7.208;2023-02-28T04:45:21;101072.16;;;17.88;27.74
4410;BME280;2218;51.408;7.208;2023-02-28T04:47:48;101073.09;;;17.87;28.11
4410;BME280;2218;51.408;7.208;2023-02-28T04:50:15;101074.78;;;17.88;27.92
4410;BME280;2218;51.408;7.208;2023-02-28T04:52:42;101076.50;;;17.89;28.08
4410;BME280;2218;51.408;7.208;2023-02-28T04:55:10;101078.34;;;17.87;28.20
4410;BME280;2218;51.408;7.208;2023-02-28T04:57:36;101069.53;;;17.88;27.86
4410;BME280;2218;51.408;7.208;2023-02-28T05:00:07;101074.78;;;17.88;28.35
4410;BME280;2218;51.408;7.208;2023-02-28T05:02:37;101087.03;;;17.89;27.94
4410;BME280;2218;51.408;7.208;2023-02-28T05:05:05;101088.72;;;17.90;27.98
4410;BME280;2218;51.408;7.208;2023-02-28T05:07:32;101087.84;;;17.91;27.63
4410;BME280;2218;51.408;7.208;2023-02-28T05:09:59;101083.47;;;17.90;27.88
4410;BME280;2218;51.408;7.208;2023-02-28T05:12:26;101091.31;;;17.91;27.77
4410;BME280;2218;51.408;7.208;2023-02-28T05:14:53;101092.94;;;17.94;27.67
4410;BME280;2218;51.408;7.208;2023-02-28T05:17:21;101089.28;;;17.98;27.51
4410;BME280;2218;51.408;7.208;2023-02-28T05:19:48;101088.22;;;18.02;27.55
4410;BME280;2218;51.408;7.208;2023-02-28T05:22:16;101089.84;;;18.04;27.48
4410;BME280;2218;51.408;7.208;2023-02-28T05:24:43;101086.25;;;18.07;27.47
4410;BME280;2218;51.408;7.208;2023-02-28T05:27:10;101089.53;;;18.12;27.54
4410;BME280;2218;51.408;7.208;2023-02-28T05:29:37;101094.69;;;18.15;27.43
4410;BME280;2218;51.408;7.208;2023-02-28T05:32:09;101096.41;;;18.16;27.43
4410;BME280;2218;51.408;7.208;2023-02-28T05:34:39;101097.25;;;18.17;27.22
4410;BME280;2218;51.408;7.208;2023-02-28T05:37:06;101100.66;;;18.19;27.07
4410;BME280;2218;51.408;7.208;2023-02-28T05:39:37;101099.59;;;18.23;27.30
4410;BME280;2218;51.408;7.208;2023-02-28T05:42:04;101105.81;;;18.22;27.15
4410;BME280;2218;51.408;7.208;2023-02-28T05:44:32;101104.94;;;18.21;27.28
4410;BME280;2218;51.408;7.208;2023-02-28T05:46:59;101107.56;;;18.21;27.32
4410;BME280;2218;51.408;7.208;2023-02-28T05:49:26;101104.94;;;18.21;27.51
4410;BME280;2218;51.408;7.208;2023-02-28T05:51:54;101102.31;;;18.21;27.26
4410;BME280;2218;51.408;7.208;2023-02-28T05:54:21;101107.50;;;18.23;27.23
4410;BME280;2218;51.408;7.208;2023-02-28T05:56:48;101111.91;;;18.22;27.23
4410;BME280;2218;51.408;7.208;2023-02-28T05:59:15;101116.31;;;18.22;27.49
4410;BME280;2218;51.408;7.208;2023-02-28T06:01:44;101112.84;;;18.21;27.33
4410;BME280;2218;51.408;7.208;2023-02-28T06:04:16;101119.94;;;18.19;27.27
4410;BME280;2218;51.408;7.208;2023-02-28T06:06:44;101119.16;;;18.17;27.39
4410;BME280;2218;51.408;7.208;2023-02-28T06:09:13;101120.00;;;18.18;27.21
4410;BME280;2218;51.408;7.208;2023-02-28T06:11:40;101126.13;;;18.18;27.35
4410;BME280;2218;51.408;7.208;2023-02-28T06:14:14;101122.56;;;18.19;27.34
4410;BME280;2218;51.408;7.208;2023-02-28T06:16:41;101134.00;;;18.18;27.62
4410;BME280;2218;51.408;7.208;2023-02-28T06:19:10;101127.81;;;18.19;27.40
4410;BME280;2218;51.408;7.208;2023-02-28T06:21:37;101134.88;;;18.19;27.15
4410;BME280;2218;51.408;7.208;2023-02-28T06:24:05;101134.81;;;18.20;27.25
4410;BME280;2218;51.408;7.208;2023-02-28T06:26:33;101138.34;;;18.19;27.25
4410;BME280;2218;51.408;7.208;2023-02-28T06:29:00;101134.81;;;18.20;27.02
4410;BME280;2218;51.408;7.208;2023-02-28T06:31:28;101131.13;;;18.24;27.11
4410;BME280;2218;51.408;7.208;2023-02-28T06:33:55;101142.38;;;18.28;27.23
4410;BME280;2218;51.408;7.208;2023-02-28T06:36:22;101133.50;;;18.30;27.02
4410;BME280;2218;51.408;7.208;2023-02-28T06:38:49;101141.31;;;18.32;26.84
4410;BME280;2218;51.408;7.208;2023-02-28T06:41:22;101136.00;;;18.33;26.86
4410;BME280;2218;51.408;7.208;2023-02-28T06:43:51;101133.25;;;18.37;26.91
4410;BME280;2218;51.408;7.208;2023-02-28T06:46:19;101139.28;;;18.39;27.07
4410;BME280;2218;51.408;7.208;2023-02-28T06:48:46;101142.72;;;18.41;26.88
4410;BME280;2218;51.408;7.208;2023-02-28T06:51:16;101144.34;;;18.43;26.92
4410;BME280;2218;51.408;7.208;2023-02-28T06:53:44;101146.84;;;18.46;27.00
4410;BME280;2218;51.408;7.208;2023-02-28T06:56:14;101151.19;;;18.47;26.92
4410;BME280;2218;51.408;7.208;2023-02-28T06:58:41;101148.44;;;18.50;26.97
4410;BME280;2218;51.408;7.208;2023-02-28T07:01:09;101154.41;;;18.54;26.92
4410;BME280;2218;51.408;7.208;2023-02-28T07:03:36;101155.22;;;18.56;26.86
4410;BME280;2218;51.408;7.208;2023-02-28T07:06:05;101152.44;;;18.59;26.65
4410;BME280;2218;51.408;7.208;2023-02-28T07:08:32;101147.03;;;18.62;26.94
4410;BME280;2218;51.408;7.208;2023-02-28T07:10:59;101159.19;;;18.65;26.88
4410;BME280;2218;51.408;7.208;2023-02-28T07:13:26;101152.06;;;18.68;26.72
4410;BME280;2218;51.408;7.208;2023-02-28T07:15:54;101152.88;;;18.70;26.98
4410;BME280;2218;51.408;7.208;2023-02-28T07:18:23;101157.13;;;18.73;26.68
4410;BME280;2218;51.408;7.208;2023-02-28T07:20:50;101161.44;;;18.75;27.09
4410;BME280;2218;51.408;7.208;2023-02-28T07:23:18;101160.50;;;18.76;26.98
4410;BME280;2218;51.408;7.208;2023-02-28T07:25:45;101156.00;;;18.78;26.90
4410;BME280;2218;51.408;7.208;2023-02-28T07:28:13;101162.97;;;18.79;27.08
4410;BME280;2218;51.408;7.208;2023-02-28T07:30:40;101149.75;;;18.81;27.03
4410;BME280;2218;51.408;7.208;2023-02-28T07:33:08;101160.22;;;18.82;27.05
4410;BME280;2218;51.408;7.208;2023-02-28T07:35:36;101162.72;;;18.85;26.91
4410;BME280;2218;51.408;7.208;2023-02-28T07:38:04;101161.88;;;18.85;26.88
4410;BME280;2218;51.408;7.208;2023-02-28T07:40:33;101161.06;;;18.83;27.07
4410;BME280;2218;51.408;7.208;2023-02-28T07:43:01;101165.41;;;18.84;26.70
4410;BME280;2218;51.408;7.208;2023-02-28T07:45:29;101167.34;;;18.80;26.99
4410;BME280;2218;51.408;7.208;2023-02-28T07:47:58;101165.69;;;18.78;26.55
4410;BME280;2218;51.408;7.208;2023-02-28T07:50:24;101165.75;;;18.76;26.92
4410;BME280;2218;51.408;7.208;2023-02-28T07:52:54;101171.03;;;18.76;26.88
4410;BME280;2218;51.408;7.208;2023-02-28T07:55:21;101169.91;;;18.82;26.85
4410;BME280;2218;51.408;7.208;2023-02-28T07:57:48;101171.59;;;18.83;26.70
4410;BME280;2218;51.408;7.208;2023-02-28T08:00:16;101176.03;;;18.82;26.88
4410;BME280;2218;51.408;7.208;2023-02-28T08:02:42;101177.06;;;18.78;27.24
4410;BME280;2218;51.408;7.208;2023-02-28T08:05:10;101170.09;;;18.77;26.81
4410;BME280;2218;51.408;7.208;2023-02-28T08:07:36;101178.84;;;18.78;27.45
4410;BME280;2218;51.408;7.208;2023-02-28T08:10:07;101179.88;;;18.75;26.84
4410;BME280;2218;51.408;7.208;2023-02-28T08:12:35;101172.84;;;18.74;27.08
4410;BME280;2218;51.408;7.208;2023-02-28T08:15:03;101174.72;;;18.72;27.39
4410;BME280;2218;51.408;7.208;2023-02-28T08:17:30;101172.16;;;18.71;27.00
4410;BME280;2218;51.408;7.208;2023-02-28T08:19:57;101166.03;;;18.70;27.18
4410;BME280;2218;51.408;7.208;2023-02-28T08:22:25;101174.00;;;18.69;27.21
4410;BME280;2218;51.408;7.208;2023-02-28T08:24:51;101168.72;;;18.69;27.04
4410;BME280;2218;51.408;7.208;2023-02-28T08:27:20;101175.78;;;18.68;27.15
4410;BME280;2218;51.408;7.208;2023-02-28T08:29:47;101174.88;;;18.68;27.26
4410;BME280;2218;51.408;7.208;2023-02-28T08:32:13;101172.25;;;18.68;27.29
4410;BME280;2218;51.408;7.208;2023-02-28T08:34:40;101166.97;;;18.68;27.35
4410;BME280;2218;51.408;7.208;2023-02-28T08:37:07;101173.09;;;18.70;27.23
4410;BME280;2218;51.408;7.208;2023-02-28T08:39:35;101170.47;;;18.70;27.42
4410;BME280;2218;51.408;7.208;2023-02-28T08:42:03;101171.31;;;18.70;27.51
4410;BME280;2218;51.408;7.208;2023-02-28T08:44:32;101173.00;;;18.71;27.32
4410;BME280;2218;51.408;7.208;2023-02-28T08:46:59;101172.16;;;18.71;27.76
4410;BME280;2218;51.408;7.208;2023-02-28T08:49:26;101171.16;;;18.73;27.57
4410;BME280;2218;51.408;7.208;2023-02-28T08:51:54;101170.31;;;18.73;27.59
4410;BME280;2218;51.408;7.208;2023-02-28T08:54:22;101174.72;;;18.72;27.26
4410;BME280;2218;51.408;7.208;2023-02-28T08:56:49;101181.69;;;18.73;27.32
4410;BME280;2218;51.408;7.208;2023-02-28T08:59:16;101174.72;;;18.72;27.57
4410;BME280;2218;51.408;7.208;2023-02-28T09:01:44;101174.72;;;18.72;27.40
4410;BME280;2218;51.408;7.208;2023-02-28T09:04:11;101178.28;;;18.71;27.67
4410;BME280;2218;51.408;7.208;2023-02-28T09:06:38;101181.00;;;18.70;27.40
4410;BME280;2218;51.408;7.208;2023-02-28T09:09:06;101172.19;;;18.69;27.28
4410;BME280;2218;51.408;7.208;2023-02-28T09:11:34;101171.41;;;18.67;27.46
4410;BME280;2218;51.408;7.208;2023-02-28T09:14:02;101167.91;;;18.67;27.58
4410;BME280;2218;51.408;7.208;2023-02-28T09:16:30;101172.31;;;18.66;27.68
4410;BME280;2218;51.408;7.208;2023-02-28T09:18:58;101162.72;;;18.65;27.54
4410;BME280;2218;51.408;7.208;2023-02-28T09:21:25;101163.63;;;18.64;27.21
4410;BME280;2218;51.408;7.208;2023-02-28T09:23:52;101167.19;;;18.63;27.63
4410;BME280;2218;51.408;7.208;2023-02-28T09:26:22;101168.97;;;18.63;27.37
4410;BME280;2218;51.408;7.208;2023-02-28T09:28:50;101172.53;;;18.62;27.53
4410;BME280;2218;51.408;7.208;2023-02-28T09:31:21;101160.28;;;18.60;27.45
4410;BME280;2218;51.408;7.208;2023-02-28T09:33:48;101160.28;;;18.60;27.79
4410;BME280;2218;51.408;7.208;2023-02-28T09:36:17;101174.31;;;18.61;27.49
4410;BME280;2218;51.408;7.208;2023-02-28T09:38:44;101168.19;;;18.60;27.21
4410;BME280;2218;51.408;7.208;2023-02-28T09:41:15;101161.13;;;18.61;27.89
4410;BME280;2218;51.408;7.208;2023-02-28T09:43:46;101163.63;;;18.64;27.56
4410;BME280;2218;51.408;7.208;2023-02-28T09:46:32;101167.06;;;18.66;27.55
4410;BME280;2218;51.408;7.208;2023-02-28T09:49:02;101168.84;;;18.66;27.27
4410;BME280;2218;51.408;7.208;2023-02-28T09:51:45;101167.06;;;18.66;27.65
4410;BME280;2218;51.408;7.208;2023-02-28T09:54:18;101171.41;;;18.67;27.46
4410;BME280;2218;51.408;7.208;2023-02-28T09:56:51;101167.88;;;18.68;27.68
4410;BME280;2218;51.408;7.208;2023-02-28T09:59:39;101171.34;;;18.69;27.71
4410;BME280;2218;51.408;7.208;2023-02-28T10:02:56;101167.88;;;18.68;27.57
4410;BME280;2218;51.408;7.208;2023-02-28T10:05:29;101165.22;;;18.68;27.25
4410;BME280;2218;51.408;7.208;2023-02-28T10:08:12;101173.13;;;18.68;27.52
4410;BME280;2218;51.408;7.208;2023-02-28T10:10:43;101172.25;;;18.68;27.36
4410;BME280;2218;51.408;7.208;2023-02-28T10:13:24;101167.06;;;18.66;27.50
4410;BME280;2218;51.408;7.208;2023-02-28T10:15:57;101178.44;;;18.67;27.63
4410;BME280;2218;51.408;7.208;2023-02-28T10:18:30;101168.84;;;18.66;27.52
4410;BME280;2218;51.408;7.208;2023-02-28T10:21:03;101161.91;;;18.63;27.63
4410;BME280;2218;51.408;7.208;2023-02-28T10:23:36;101169.81;;;18.63;27.65
4410;BME280;2218;51.408;7.208;2023-02-28T10:26:12;101168.97;;;18.63;27.72
4410;BME280;2218;51.408;7.208;2023-02-28T10:28:40;101162.84;;;18.62;27.43
4410;BME280;2218;51.408;7.208;2023-02-28T10:31:14;101161.19;;;18.59;27.45
4410;BME280;2218;51.408;7.208;2023-02-28T10:33:43;101152.44;;;18.59;27.59
4410;BME280;2218;51.408;7.208;2023-02-28T10:36:15;101153.38;;;18.58;27.42
4410;BME280;2218;51.408;7.208;2023-02-28T10:38:47;101146.38;;;18.57;27.59
4410;BME280;2218;51.408;7.208;2023-02-28T10:41:27;101149.03;;;18.57;27.29
4410;BME280;2218;51.408;7.208;2023-02-28T10:44:14;101148.25;;;18.55;27.42
4410;BME280;2218;51.408;7.208;2023-02-28T10:46:42;101153.44;;;18.56;27.78
4410;BME280;2218;51.408;7.208;2023-02-28T10:49:17;101146.38;;;18.57;27.49
4410;BME280;2218;51.408;7.208;2023-02-28T10:51:49;101153.28;;;18.59;27.57
4410;BME280;2218;51.408;7.208;2023-02-28T10:54:31;101136.59;;;18.60;27.55
4410;BME280;2218;51.408;7.208;2023-02-28T10:57:18;101146.13;;;18.63;27.67
4410;BME280;2218;51.408;7.208;2023-02-28T10:59:51;101138.22;;;18.63;27.67
4410;BME280;2218;51.408;7.208;2023-02-28T11:02:33;101143.41;;;18.65;27.71
4410;BME280;2218;51.408;7.208;2023-02-28T11:05:00;101137.28;;;18.64;27.74
4410;BME280;2218;51.408;7.208;2023-02-28T11:07:27;101139.03;;;18.65;27.19
4410;BME280;2218;51.408;7.208;2023-02-28T11:09:57;101138.94;;;18.67;27.35
4410;BME280;2218;51.408;7.208;2023-02-28T11:12:28;101133.69;;;18.67;27.35
4410;BME280;2218;51.408;7.208;2023-02-28T11:15:00;101129.25;;;18.67;27.22
4410;BME280;2218;51.408;7.208;2023-02-28T11:17:31;101133.69;;;18.67;27.42
4410;BME280;2218;51.408;7.208;2023-02-28T11:20:04;101135.47;;;18.66;27.43
4410;BME280;2218;51.408;7.208;2023-02-28T11:22:37;101135.47;;;18.66;27.18
4410;BME280;2218;51.408;7.208;2023-02-28T11:25:17;101132.81;;;18.66;27.34
4410;BME280;2218;51.408;7.208;2023-02-28T11:27:49;101131.13;;;18.65;27.31
4410;BME280;2218;51.408;7.208;2023-02-28T11:30:32;101131.97;;;18.66;27.41
4410;BME280;2218;51.408;7.208;2023-02-28T11:33:01;101127.69;;;18.63;27.45
4410;BME280;2218;51.408;7.208;2023-02-28T11:35:33;101134.81;;;18.61;27.37
4410;BME280;2218;51.408;7.208;2023-02-28T11:38:04;101135.66;;;18.62;27.32
4410;BME280;2218;51.408;7.208;2023-02-28T11:40:43;101131.38;;;18.59;27.31
4410;BME280;2218;51.408;7.208;2023-02-28T11:43:29;101139.34;;;18.57;27.33
4410;BME280;2218;51.408;7.208;2023-02-28T11:46:16;101134.06;;;18.57;27.29
4410;BME280;2218;51.408;7.208;2023-02-28T11:48:59;101127.97;;;18.57;27.07
4410;BME280;2218;51.408;7.208;2023-02-28T11:51:34;101127.09;;;18.56;27.23
4410;BME280;2218;51.408;7.208;2023-02-28T11:54:28;101127.03;;;18.58;27.01
4410;BME280;2218;51.408;7.208;2023-02-28T11:57:11;101127.88;;;18.58;27.16
4410;BME280;2218;51.408;7.208;2023-02-28T11:59:57;101124.41;;;18.58;26.87
4410;BME280;2218;51.408;7.208;2023-02-28T12:02:30;101118.19;;;18.59;26.89
4410;BME280;2218;51.408;7.208;2023-02-28T12:05:20;101116.28;;;18.63;27.23
4410;BME280;2218;51.408;7.208;2023-02-28T12:08:04;101113.59;;;18.64;26.94
4410;BME280;2218;51.408;7.208;2023-02-28T12:10:44;101112.69;;;18.65;27.21
4410;BME280;2218;51.408;7.208;2023-02-28T12:13:26;101107.44;;;18.65;26.93
4410;BME280;2218;51.408;7.208;2023-02-28T12:16:25;101102.19;;;18.64;26.98
4410;BME280;2218;51.408;7.208;2023-02-28T12:19:09;101100.41;;;18.64;26.94
4410;BME280;2218;51.408;7.208;2023-02-28T12:21:59;101090.69;;;18.66;27.06
4410;BME280;2218;51.408;7.208;2023-02-28T12:24:50;101097.66;;;18.67;26.89
4410;BME280;2218;51.408;7.208;2023-02-28T12:27:25;101088.88;;;18.68;26.69
4410;BME280;2218;51.408;7.208;2023-02-28T12:30:00;101077.41;;;18.69;26.69
4410;BME280;2218;51.408;7.208;2023-02-28T12:32:33;101073.06;;;18.68;26.91
4410;BME280;2218;51.408;7.208;2023-02-28T12:35:10;101066.88;;;18.69;27.07
4410;BME280;2218;51.408;7.208;2023-02-28T12:37:43;101075.69;;;18.68;26.79
4410;BME280;2218;51.408;7.208;2023-02-28T12:40:15;101066.06;;;18.67;27.13
4410;BME280;2218;51.408;7.208;2023-02-28T12:42:49;101059.94;;;18.67;26.98
4410;BME280;2218;51.408;7.208;2023-02-28T12:45:22;101060.91;;;18.64;27.03
4410;BME280;2218;51.408;7.208;2023-02-28T12:47:57;101065.28;;;18.65;26.81
4410;BME280;2218;51.408;7.208;2023-02-28T12:50:26;101051.25;;;18.65;27.04
4410;BME280;2218;51.408;7.208;2023-02-28T12:53:02;101062.69;;;18.64;26.98
4410;BME280;2218;51.408;7.208;2023-02-28T12:55:40;101048.69;;;18.63;26.74
4410;BME280;2218;51.408;7.208;2023-02-28T12:58:16;101053.94;;;18.63;26.62
4410;BME280;2218;51.408;7.208;2023-02-28T13:01:23;101036.44;;;18.62;27.11
4410;BME280;2218;51.408;7.208;2023-02-28T13:04:44;101035.59;;;18.62;27.02
4410;BME280;2218;51.408;7.208;2023-02-28T13:07:45;101034.75;;;18.61;26.53
4410;BME280;2218;51.408;7.208;2023-02-28T13:10:18;101029.47;;;18.61;26.62
4410;BME280;2218;51.408;7.208;2023-02-28T13:12:51;101022.44;;;18.62;26.89
4410;BME280;2218;51.408;7.208;2023-02-28T13:15:23;101031.09;;;18.64;26.63
4410;BME280;2218;51.408;7.208;2023-02-28T13:17:55;101025.78;;;18.65;26.58
4410;BME280;2218;51.408;7.208;2023-02-28T13:20:33;101029.19;;;18.67;26.62
4410;BME280;2218;51.408;7.208;2023-02-28T13:23:01;101024.72;;;18.69;26.75
4410;BME280;2218;51.408;7.208;2023-02-28T13:25:53;101018.63;;;18.69;26.62
4410;BME280;2218;51.408;7.208;2023-02-28T13:28:57;101026.47;;;18.70;26.72
4410;BME280;2218;51.408;7.208;2023-02-28T13:31:26;101013.28;;;18.70;26.58
4410;BME280;2218;51.408;7.208;2023-02-28T13:34:15;101016.78;;;18.71;26.70
4410;BME280;2218;51.408;7.208;2023-02-28T13:36:42;101026.31;;;18.73;26.76
4410;BME280;2218;51.408;7.208;2023-02-28T13:39:47;101018.41;;;18.73;26.72